sensor_id;sensor_type;location;lat;lon;timestamp;pressure;altitude;pressure_sealevel;temperature;humidity
56182;BME280;51963;46.052;14.544;2023-03-04T00:02:14;98526.00;;;2.93;100.00
56182;BME280;51963;46.052;14.544;2023-03-04T00:04:43;98508.66;;;2.72;100.00
56182;BME280;51963;46.052;14.544;2023-03-04T00:07:08;98525.97;;;2.73;100.00
56182;BME280;51963;46.052;14.544;2023-03-04T00:09:34;98535.34;;;2.76;100.00
56182;BME280;51963;46.052;14.544;2023-03-04T00:12:00;98528.00;;;2.60;100.00
56182;BME280;51963;46.052;14.544;2023-03-04T00:14:28;98530.34;;;2.63;100.00
56182;BME280;51963;46.052;14.544;2023-03-04T00:16:54;98529.66;;;2.61;100.00
56182;BME280;51963;46.052;14.544;2023-03-04T00:19:20;98523.63;;;2.70;100.00
56182;BME280;51963;46.052;14.544;2023-03-04T00:21:45;98536.41;;;2.73;100.00
56182;BME280;51963;46.052;14.544;2023-03-04T00:24:11;98527.03;;;2.61;100.00
56182;BME280;51963;46.052;14.544;2023-03-04T00:26:37;98503.75;;;2.38;100.00
56182;BME280;51963;46.052;14.544;2023-03-04T00:29:02;98515.03;;;2.48;100.00
56182;BME280;51963;46.052;14.544;2023-03-04T00:31:28;98497.84;;;2.36;100.00
56182;BME280;51963;46.052;14.544;2023-03-04T00:33:53;98511.44;;;2.40;100.00
56182;BME280;51963;46.052;14.544;2023-03-04T00:36:20;98518.44;;;2.39;100.00
56182;BME280;51963;46.052;14.544;2023-03-04T00:38:45;98499.53;;;2.57;100.00
56182;BME280;51963;46.052;14.544;2023-03-04T00:41:11;98512.22;;;2.71;100.00
56182;BME280;51963;46.052;14.544;2023-03-04T00:43:36;98515.47;;;2.63;100.00
56182;BME280;51963;46.052;14.544;2023-03-04T00:46:02;98491.50;;;2.39;100.00
56182;BME280;51963;46.052;14.544;2023-03-04T00:48:28;98522.72;;;2.50;100.00
56182;BME280;51963;46.052;14.544;2023-03-04T00:50:54;98491.34;;;2.30;100.00
56182;BME280;51963;46.052;14.544;2023-03-04T00:53:20;98510.88;;;2.36;100.00
56182;BME280;51963;46.052;14.544;2023-03-04T00:55:48;98503.84;;;2.27;100.00
56182;BME280;51963;46.052;14.544;2023-03-04T00:58:14;98512.09;;;2.32;100.00
56182;BME280;51963;46.052;14.544;2023-03-04T01:00:40;98509.06;;;2.27;100.00
56182;BME280;51963;46.052;14.544;2023-03-04T01:03:05;98506.72;;;2.24;100.00
56182;BME280;51963;46.052;14.544;2023-03-04T01:05:33;98497.59;;;2.18;100.00
56182;BME280;51963;46.052;14.544;2023-03-04T01:08:01;98500.56;;;2.34;100.00
56182;BME280;51963;46.052;14.544;2023-03-04T01:10:27;98494.09;;;2.29;100.00
56182;BME280;51963;46.052;14.544;2023-03-04T01:12:52;98491.91;;;2.34;100.00
56182;BME280;51963;46.052;14.544;2023-03-04T01:15:18;98483.50;;;2.30;100.00
56182;BME280;51963;46.052;14.544;2023-03-04T01:17:48;98490.13;;;2.34;100.00
56182;BME280;51963;46.052;14.544;2023-03-04T01:20:15;98484.91;;;2.34;100.00
56182;BME280;51963;46.052;14.544;2023-03-04T01:22:40;98480.38;;;2.37;100.00
56182;BME280;51963;46.052;14.544;2023-03-04T01:25:09;98468.97;;;2.28;100.00
56182;BME280;51963;46.052;14.544;2023-03-04T01:27:35;98482.19;;;2.46;100.00
56182;BME280;51963;46.052;14.544;2023-03-04T01:30:01;98481.00;;;2.60;100.00
56182;BME280;51963;46.052;14.544;2023-03-04T01:32:28;98472.59;;;2.46;100.00
56182;BME280;51963;46.052;14.544;2023-03-04T01:34:54;98467.84;;;2.30;100.00
56182;BME280;51963;46.052;14.544;2023-03-04T01:37:19;98470.31;;;2.22;100.00
56182;BME280;51963;46.052;14.544;2023-03-04T01:39:45;98471.63;;;2.07;100.00
56182;BME280;51963;46.052;14.544;2023-03-04T01:42:19;98456.47;;;1.90;100.00
56182;BME280;51963;46.052;14.544;2023-03-04T01:44:46;98472.72;;;2.04;100.00
56182;BME280;51963;46.052;14.544;2023-03-04T01:47:12;98455.69;;;2.00;100.00
56182;BME280;51963;46.052;14.544;2023-03-04T01:49:41;98464.47;;;1.99;100.00
56182;BME280;51963;46.052;14.544;2023-03-04T01:52:11;98468.72;;;2.00;100.00
56182;BME280;51963;46.052;14.544;2023-03-04T01:54:37;98462.72;;;2.09;100.00
56182;BME280;51963;46.052;14.544;2023-03-04T01:57:15;98449.16;;;2.15;100.00
56182;BME280;51963;46.052;14.544;2023-03-04T01:59:42;98452.31;;;2.19;100.00
56182;BME280;51963;46.052;14.544;2023-03-04T02:02:08;98454.78;;;2.20;100.00
56182;BME280;51963;46.052;14.544;2023-03-04T02:04:35;98452.44;;;2.17;100.00
56182;BME280;51963;46.052;14.544;2023-03-04T02:07:02;98448.56;;;2.12;100.00
56182;BME280;51963;46.052;14.544;2023-03-04T02:09:29;98440.91;;;2.10;100.00
56182;BME280;51963;46.052;14.544;2023-03-04T02:11:56;98428.50;;;2.02;100.00
56182;BME280;51963;46.052;14.544;2023-03-04T02:14:23;98437.88;;;2.15;100.00
56182;BME280;51963;46.052;14.544;2023-03-04T02:16:49;98436.38;;;2.12;100.00
56182;BME280;51963;46.052;14.544;2023-03-04T02:21:55;98435.16;;;2.16;100.00
56182;BME280;51963;46.052;14.544;2023-03-04T02:24:45;98432.81;;;2.23;100.00
56182;BME280;51963;46.052;14.544;2023-03-04T02:27:12;98396.38;;;2.02;100.00
56182;BME280;51963;46.052;14.544;2023-03-04T02:29:38;98436.28;;;2.24;100.00
56182;BME280;51963;46.052;14.544;2023-03-04T02:32:04;98433.34;;;2.17;100.00
56182;BME280;51963;46.052;14.544;2023-03-04T02:34:34;98421.09;;;2.08;100.00
56182;BME280;51963;46.052;14.544;2023-03-04T02:37:02;98417.69;;;2.07;100.00
56182;BME280;51963;46.052;14.544;2023-03-04T02:39:32;98423.06;;;2.15;100.00
56182;BME280;51963;46.052;14.544;2023-03-04T02:41:59;98415.94;;;2.17;100.00
56182;BME280;51963;46.052;14.544;2023-03-04T02:44:32;98417.84;;;2.15;100.00
56182;BME280;51963;46.052;14.544;2023-03-04T02:47:03;98396.38;;;2.02;100.00
56182;BME280;51963;46.052;14.544;2023-03-04T02:49:30;98413.19;;;2.19;100.00
56182;BME280;51963;46.052;14.544;2023-03-04T02:52:02;98416.47;;;2.11;100.00
56182;BME280;51963;46.052;14.544;2023-03-04T02:54:28;98416.88;;;2.16;100.00
56182;BME280;51963;46.052;14.544;2023-03-04T02:56:57;98420.47;;;2.15;100.00
56182;BME280;51963;46.052;14.544;2023-03-04T02:59:23;98415.63;;;2.11;100.00
56182;BME280;51963;46.052;14.544;2023-03-04T03:01:50;98410.56;;;2.09;100.00
56182;BME280;51963;46.052;14.544;2023-03-04T03:04:26;98416.41;;;2.01;100.00
56182;BME280;51963;46.052;14.544;2023-03-04T03:06:53;98403.00;;;2.06;100.00
56182;BME280;51963;46.052;14.544;2023-03-04T03:09:20;98411.25;;;2.11;100.00
56182;BME280;51963;46.052;14.544;2023-03-04T03:11:46;98406.97;;;2.10;100.00
56182;BME280;51963;46.052;14.544;2023-03-04T03:14:13;98418.38;;;2.09;100.00
56182;BME280;51963;46.052;14.544;2023-03-04T03:16:42;98411.78;;;2.05;100.00
56182;BME280;51963;46.052;14.544;2023-03-04T03:19:16;98414.81;;;2.10;100.00
56182;BME280;51963;46.052;14.544;2023-03-04T03:21:44;98411.94;;;2.13;100.00
56182;BME280;51963;46.052;14.544;2023-03-04T03:24:10;98417.28;;;2.12;100.00
56182;BME280;51963;46.052;14.544;2023-03-04T03:26:38;98410.97;;;2.14;100.00
56182;BME280;51963;46.052;14.544;2023-03-04T03:29:04;98407.78;;;2.11;100.00
56182;BME280;51963;46.052;14.544;2023-03-04T03:31:30;98401.34;;;2.05;100.00
56182;BME280;51963;46.052;14.544;2023-03-04T03:33:56;98406.28;;;2.08;100.00
56182;BME280;51963;46.052;14.544;2023-03-04T03:36:21;98410.13;;;2.04;100.00
56182;BME280;51963;46.052;14.544;2023-03-04T03:38:47;98409.88;;;2.17;100.00
56182;BME280;51963;46.052;14.544;2023-03-04T03:41:12;98405.75;;;2.14;100.00
56182;BME280;51963;46.052;14.544;2023-03-04T03:43:38;98395.00;;;1.98;100.00
56182;BME280;51963;46.052;14.544;2023-03-04T03:46:04;98402.19;;;2.15;100.00
56182;BME280;51963;46.052;14.544;2023-03-04T03:48:29;98404.81;;;2.15;100.00
56182;BME280;51963;46.052;14.544;2023-03-04T03:50:55;98411.34;;;2.51;100.00
56182;BME280;51963;46.052;14.544;2023-03-04T03:53:21;98405.97;;;2.42;100.00
56182;BME280;51963;46.052;14.544;2023-03-04T03:55:46;98407.59;;;2.33;100.00
56182;BME280;51963;46.052;14.544;2023-03-04T03:58:12;98406.19;;;2.19;100.00
56182;BME280;51963;46.052;14.544;2023-03-04T04:00:38;98410.41;;;2.11;100.00
56182;BME280;51963;46.052;14.544;2023-03-04T04:03:04;98390.75;;;1.97;100.00
56182;BME280;51963;46.052;14.544;2023-03-04T04:05:30;98403.59;;;2.19;100.00
56182;BME280;51963;46.052;14.544;2023-03-04T04:07:56;98406.63;;;2.25;100.00
56182;BME280;51963;46.052;14.544;2023-03-04T04:10:22;98411.03;;;2.34;100.00
56182;BME280;51963;46.052;14.544;2023-03-04T04:12:47;98397.28;;;2.42;100.00
56182;BME280;51963;46.052;14.544;2023-03-04T04:15:13;98393.34;;;2.47;100.00
56182;BME280;51963;46.052;14.544;2023-03-04T04:17:39;98405.44;;;2.48;100.00
56182;BME280;51963;46.052;14.544;2023-03-04T04:20:06;98412.31;;;2.49;100.00
56182;BME280;51963;46.052;14.544;2023-03-04T04:22:32;98409.94;;;2.37;100.00
56182;BME280;51963;46.052;14.544;2023-03-04T04:24:58;98405.25;;;2.30;100.00
56182;BME280;51963;46.052;14.544;2023-03-04T04:27:24;98403.09;;;2.45;100.00
56182;BME280;51963;46.052;14.544;2023-03-04T04:29:49;98413.53;;;2.45;100.00
56182;BME280;51963;46.052;14.544;2023-03-04T04:32:15;98403.63;;;2.49;100.00
56182;BME280;51963;46.052;14.544;2023-03-04T04:34:40;98422.50;;;2.72;100.00
56182;BME280;51963;46.052;14.544;2023-03-04T04:37:06;98406.13;;;2.70;100.00
56182;BME280;51963;46.052;14.544;2023-03-04T04:39:32;98412.06;;;2.82;100.00
56182;BME280;51963;46.052;14.544;2023-03-04T04:41:57;98407.66;;;2.63;100.00
56182;BME280;51963;46.052;14.544;2023-03-04T04:44:23;98411.34;;;2.70;100.00
56182;BME280;51963;46.052;14.544;2023-03-04T04:46:49;98393.75;;;2.53;100.00
56182;BME280;51963;46.052;14.544;2023-03-04T04:49:14;98406.41;;;2.67;100.00
56182;BME280;51963;46.052;14.544;2023-03-04T04:51:40;98413.56;;;2.65;100.00
56182;BME280;51963;46.052;14.544;2023-03-04T04:54:07;98410.50;;;2.50;100.00
56182;BME280;51963;46.052;14.544;2023-03-04T04:56:33;98406.66;;;2.54;100.00
56182;BME280;51963;46.052;14.544;2023-03-04T04:59:02;98414.25;;;2.67;100.00
56182;BME280;51963;46.052;14.544;2023-03-04T05:01:27;98416.81;;;2.47;100.00
56182;BME280;51963;46.052;14.544;2023-03-04T05:03:53;98412.16;;;2.51;100.00
56182;BME280;51963;46.052;14.544;2023-03-04T05:06:21;98404.47;;;2.59;100.00
56182;BME280;51963;46.052;14.544;2023-03-04T05:08:47;98409.13;;;2.46;100.00
56182;BME280;51963;46.052;14.544;2023-03-04T05:11:13;98390.38;;;2.21;100.00
56182;BME280;51963;46.052;14.544;2023-03-04T05:13:39;98379.53;;;2.16;100.00
56182;BME280;51963;46.052;14.544;2023-03-04T05:16:05;98404.03;;;2.44;100.00
56182;BME280;51963;46.052;14.544;2023-03-04T05:18:31;98401.31;;;2.56;100.00
56182;BME280;51963;46.052;14.544;2023-03-04T05:21:00;98403.66;;;2.59;100.00
56182;BME280;51963;46.052;14.544;2023-03-04T05:23:27;98403.94;;;2.75;100.00
56182;BME280;51963;46.052;14.544;2023-03-04T05:25:53;98400.38;;;2.76;100.00
56182;BME280;51963;46.052;14.544;2023-03-04T05:28:19;98398.44;;;2.59;100.00
56182;BME280;51963;46.052;14.544;2023-03-04T05:30:45;98403.66;;;2.59;100.00
56182;BME280;51963;46.052;14.544;2023-03-04T05:33:13;98400.66;;;2.73;100.00
56182;BME280;51963;46.052;14.544;2023-03-04T05:35:39;98374.41;;;2.65;100.00
56182;BME280;51963;46.052;14.544;2023-03-04T05:38:07;98396.38;;;2.72;100.00
56182;BME280;51963;46.052;14.544;2023-03-04T05:40:34;98398.44;;;2.78;100.00
56182;BME280;51963;46.052;14.544;2023-03-04T05:43:00;98397.78;;;2.67;100.00
56182;BME280;51963;46.052;14.544;2023-03-04T05:45:26;98372.59;;;2.56;100.00
56182;BME280;51963;46.052;14.544;2023-03-04T05:47:52;98402.59;;;2.81;100.00
56182;BME280;51963;46.052;14.544;2023-03-04T05:50:19;98405.03;;;2.63;100.00
56182;BME280;51963;46.052;14.544;2023-03-04T05:52:45;98393.47;;;2.36;100.00
56182;BME280;51963;46.052;14.544;2023-03-04T05:55:11;98406.22;;;2.39;100.00
56182;BME280;51963;46.052;14.544;2023-03-04T05:57:37;98407.56;;;2.24;100.00
56182;BME280;51963;46.052;14.544;2023-03-04T06:00:04;98385.69;;;2.05;100.00
56182;BME280;51963;46.052;14.544;2023-03-04T06:02:39;98410.97;;;2.14;100.00
56182;BME280;51963;46.052;14.544;2023-03-04T06:05:05;98411.25;;;2.11;100.00
56182;BME280;51963;46.052;14.544;2023-03-04T06:07:31;98411.13;;;2.23;100.00
56182;BME280;51963;46.052;14.544;2023-03-04T06:09:57;98390.97;;;2.25;100.00
56182;BME280;51963;46.052;14.544;2023-03-04T06:12:23;98404.56;;;2.28;100.00
56182;BME280;51963;46.052;14.544;2023-03-04T06:14:49;98411.06;;;2.54;100.00
56182;BME280;51963;46.052;14.544;2023-03-04T06:17:15;98417.66;;;2.58;100.00
56182;BME280;51963;46.052;14.544;2023-03-04T06:19:41;98390.84;;;2.36;100.00
56182;BME280;51963;46.052;14.544;2023-03-04T06:22:08;98424.16;;;2.73;100.00
56182;BME280;51963;46.052;14.544;2023-03-04T06:24:34;98429.22;;;2.65;100.00
56182;BME280;51963;46.052;14.544;2023-03-04T06:27:00;98432.50;;;2.57;100.00
56182;BME280;51963;46.052;14.544;2023-03-04T06:29:26;98429.72;;;2.49;100.00
56182;BME280;51963;46.052;14.544;2023-03-04T06:31:52;98419.72;;;2.44;100.00
56182;BME280;51963;46.052;14.544;2023-03-04T06:34:18;98413.75;;;2.32;100.00
56182;BME280;51963;46.052;14.544;2023-03-04T06:36:44;98435.50;;;2.53;100.00
56182;BME280;51963;46.052;14.544;2023-03-04T06:39:13;98426.69;;;2.34;100.00
56182;BME280;51963;46.052;14.544;2023-03-04T06:41:38;98423.13;;;2.35;100.00
56182;BME280;51963;46.052;14.544;2023-03-04T06:44:04;98385.28;;;2.10;100.00
56182;BME280;51963;46.052;14.544;2023-03-04T06:46:34;98424.50;;;2.39;100.00
56182;BME280;51963;46.052;14.544;2023-03-04T06:48:59;98435.22;;;2.46;100.00
56182;BME280;51963;46.052;14.544;2023-03-04T06:51:26;98427.13;;;2.39;100.00
56182;BME280;51963;46.052;14.544;2023-03-04T06:53:52;98422.34;;;2.64;100.00
56182;BME280;51963;46.052;14.544;2023-03-04T06:56:17;98412.19;;;2.61;100.00
56182;BME280;51963;46.052;14.544;2023-03-04T06:58:44;98443.19;;;2.54;100.00
56182;BME280;51963;46.052;14.544;2023-03-04T07:01:16;98445.84;;;2.64;100.00
56182;BME280;51963;46.052;14.544;2023-03-04T07:03:42;98444.91;;;2.75;100.00
56182;BME280;51963;46.052;14.544;2023-03-04T07:06:13;98445.44;;;2.78;100.00
56182;BME280;51963;46.052;14.544;2023-03-04T07:08:40;98444.91;;;2.85;100.00
56182;BME280;51963;46.052;14.544;2023-03-04T07:11:06;98446.53;;;2.66;100.00
56182;BME280;51963;46.052;14.544;2023-03-04T07:13:32;98439.81;;;2.73;100.00
56182;BME280;51963;46.052;14.544;2023-03-04T07:16:00;98426.47;;;2.57;100.00
56182;BME280;51963;46.052;14.544;2023-03-04T07:18:26;98437.88;;;2.66;100.00
56182;BME280;51963;46.052;14.544;2023-03-04T07:20:52;98444.75;;;2.76;100.00
56182;BME280;51963;46.052;14.544;2023-03-04T07:23:18;98437.75;;;2.67;100.00
56182;BME280;51963;46.052;14.544;2023-03-04T07:25:44;98420.00;;;2.61;100.00
56182;BME280;51963;46.052;14.544;2023-03-04T07:28:10;98441.28;;;2.56;100.00
56182;BME280;51963;46.052;14.544;2023-03-04T07:30:36;98438.47;;;2.79;100.00
56182;BME280;51963;46.052;14.544;2023-03-04T07:33:01;98436.66;;;2.79;100.00
56182;BME280;51963;46.052;14.544;2023-03-04T07:35:27;98427.72;;;2.72;100.00
56182;BME280;51963;46.052;14.544;2023-03-04T07:37:55;98441.31;;;2.66;100.00
56182;BME280;51963;46.052;14.544;2023-03-04T07:40:21;98439.22;;;2.50;100.00
56182;BME280;51963;46.052;14.544;2023-03-04T07:42:56;98435.25;;;2.56;100.00
56182;BME280;51963;46.052;14.544;2023-03-04T07:45:25;98443.53;;;3.00;100.00
56182;BME280;51963;46.052;14.544;2023-03-04T07:47:54;98446.84;;;3.12;100.00
56182;BME280;51963;46.052;14.544;2023-03-04T07:50:20;98452.88;;;3.13;100.00
56182;BME280;51963;46.052;14.544;2023-03-04T07:52:47;98446.28;;;3.28;100.00
56182;BME280;51963;46.052;14.544;2023-03-04T07:55:16;98441.34;;;3.05;100.00
56182;BME280;51963;46.052;14.544;2023-03-04T07:57:44;98436.38;;;3.22;100.00
56182;BME280;51963;46.052;14.544;2023-03-04T08:00:11;98446.16;;;3.20;100.00
56182;BME280;51963;46.052;14.544;2023-03-04T08:02:41;98434.31;;;3.16;100.00
56182;BME280;51963;46.052;14.544;2023-03-04T08:05:07;98446.00;;;3.31;100.00
56182;BME280;51963;46.052;14.544;2023-03-04T08:07:33;98455.22;;;3.16;100.00
56182;BME280;51963;46.052;14.544;2023-03-04T08:10:01;98442.03;;;3.17;100.00
56182;BME280;51963;46.052;14.544;2023-03-04T08:12:26;98438.88;;;3.23;100.00
56182;BME280;51963;46.052;14.544;2023-03-04T08:14:55;98436.81;;;3.07;100.00
56182;BME280;51963;46.052;14.544;2023-03-04T08:17:20;98444.09;;;3.04;100.00
56182;BME280;51963;46.052;14.544;2023-03-04T08:19:46;98428.41;;;3.14;100.00
56182;BME280;51963;46.052;14.544;2023-03-04T08:22:11;98442.44;;;3.13;100.00
56182;BME280;51963;46.052;14.544;2023-03-04T08:24:37;98433.91;;;2.91;100.00
56182;BME280;51963;46.052;14.544;2023-03-04T08:27:03;98434.19;;;2.78;100.00
56182;BME280;51963;46.052;14.544;2023-03-04T08:29:29;98443.69;;;2.99;100.00
56182;BME280;51963;46.052;14.544;2023-03-04T08:31:56;98425.38;;;2.89;100.00
56182;BME280;51963;46.052;14.544;2023-03-04T08:34:24;98444.94;;;2.95;100.00
56182;BME280;51963;46.052;14.544;2023-03-04T08:36:50;98435.41;;;3.23;100.00
56182;BME280;51963;46.052;14.544;2023-03-04T08:39:17;98447.94;;;3.19;100.00
56182;BME280;51963;46.052;14.544;2023-03-04T08:41:43;98445.31;;;3.29;100.00
56182;BME280;51963;46.052;14.544;2023-03-04T08:44:09;98435.56;;;2.92;100.00
56182;BME280;51963;46.052;14.544;2023-03-04T08:46:36;98427.19;;;3.28;100.00
56182;BME280;51963;46.052;14.544;2023-03-04T08:49:03;98434.84;;;3.29;100.00
56182;BME280;51963;46.052;14.544;2023-03-04T08:51:29;98427.56;;;3.43;100.00
56182;BME280;51963;46.052;14.544;2023-03-04T08:53:55;98426.31;;;3.47;100.00
56182;BME280;51963;46.052;14.544;2023-03-04T08:56:21;98425.84;;;3.61;100.00
56182;BME280;51963;46.052;14.544;2023-03-04T08:58:47;98426.41;;;3.65;100.00
56182;BME280;51963;46.052;14.544;2023-03-04T09:01:13;98430.53;;;3.67;100.00
56182;BME280;51963;46.052;14.544;2023-03-04T09:03:39;98412.31;;;3.76;100.00
56182;BME280;51963;46.052;14.544;2023-03-04T09:06:06;98412.75;;;4.09;100.00
56182;BME280;51963;46.052;14.544;2023-03-04T09:08:33;98409.84;;;4.12;100.00
56182;BME280;51963;46.052;14.544;2023-03-04T09:10:59;98407.19;;;4.22;100.00
56182;BME280;51963;46.052;14.544;2023-03-04T09:13:28;98416.31;;;4.36;100.00
56182;BME280;51963;46.052;14.544;2023-03-04T09:15:54;98411.94;;;4.54;100.00
56182;BME280;51963;46.052;14.544;2023-03-04T09:18:26;98409.09;;;4.66;100.00
56182;BME280;51963;46.052;14.544;2023-03-04T09:20:52;98398.50;;;4.21;100.00
56182;BME280;51963;46.052;14.544;2023-03-04T09:23:18;98417.13;;;4.64;100.00
56182;BME280;51963;46.052;14.544;2023-03-04T09:25:44;98407.03;;;4.88;100.00
56182;BME280;51963;46.052;14.544;2023-03-04T09:28:13;98413.47;;;4.75;100.00
56182;BME280;51963;46.052;14.544;2023-03-04T09:30:39;98411.81;;;4.74;100.00
56182;BME280;51963;46.052;14.544;2023-03-04T09:33:05;98408.06;;;4.95;100.00
56182;BME280;51963;46.052;14.544;2023-03-04T09:35:31;98407.03;;;4.69;100.00
56182;BME280;51963;46.052;14.544;2023-03-04T09:37:57;98411.06;;;4.82;100.00
56182;BME280;51963;46.052;14.544;2023-03-04T09:40:28;98407.13;;;4.32;100.00
56182;BME280;51963;46.052;14.544;2023-03-04T09:42:58;98408.69;;;4.24;100.00
56182;BME280;51963;46.052;14.544;2023-03-04T09:45:36;98400.91;;;4.05;100.00
56182;BME280;51963;46.052;14.544;2023-03-04T09:48:04;98400.97;;;4.69;100.00
56182;BME280;51963;46.052;14.544;2023-03-04T09:50:32;98396.94;;;4.75;100.00
56182;BME280;51963;46.052;14.544;2023-03-04T09:53:32;98376.13;;;4.73;100.00
56182;BME280;51963;46.052;14.544;2023-03-04T09:55:53;98397.75;;;4.93;100.00
56182;BME280;51963;46.052;14.544;2023-03-04T09:58:27;98376.84;;;4.83;100.00
56182;BME280;51963;46.052;14.544;2023-03-04T10:01:06;98400.72;;;5.17;100.00
56182;BME280;51963;46.052;14.544;2023-03-04T10:04:47;98395.75;;;5.32;100.00
56182;BME280;51963;46.052;14.544;2023-03-04T10:06:47;98393.09;;;5.05;100.00
56182;BME280;51963;46.052;14.544;2023-03-04T10:11:49;98387.44;;;5.36;100.00
56182;BME280;51963;46.052;14.544;2023-03-04T10:14:32;98389.44;;;5.42;100.00
56182;BME280;51963;46.052;14.544;2023-03-04T10:17:21;98376.94;;;5.36;100.00
56182;BME280;51963;46.052;14.544;2023-03-04T10:20:11;98385.72;;;5.27;100.00
56182;BME280;51963;46.052;14.544;2023-03-04T10:22:52;98377.91;;;5.62;100.00
56182;BME280;51963;46.052;14.544;2023-03-04T10:25:29;98363.09;;;5.79;100.00
56182;BME280;51963;46.052;14.544;2023-03-04T10:28:01;98369.38;;;5.94;100.00
56182;BME280;51963;46.052;14.544;2023-03-04T10:33:35;98358.63;;;6.06;100.00
56182;BME280;51963;46.052;14.544;2023-03-04T10:38:37;98354.50;;;6.03;100.00
56182;BME280;51963;46.052;14.544;2023-03-04T10:41:19;98355.56;;;5.84;100.00
56182;BME280;51963;46.052;14.544;2023-03-04T10:46:39;98353.59;;;6.29;100.00
56182;BME280;51963;46.052;14.544;2023-03-04T10:49:05;98353.16;;;6.42;100.00
56182;BME280;51963;46.052;14.544;2023-03-04T10:51:31;98351.69;;;6.56;100.00
56182;BME280;51963;46.052;14.544;2023-03-04T10:54:07;98342.69;;;6.75;100.00
56182;BME280;51963;46.052;14.544;2023-03-04T10:56:40;98341.50;;;7.02;100.00
56182;BME280;51963;46.052;14.544;2023-03-04T10:59:33;98344.00;;;7.12;100.00
56182;BME280;51963;46.052;14.544;2023-03-04T11:02:13;98336.91;;;7.04;100.00
56182;BME280;51963;46.052;14.544;2023-03-04T11:04:39;98337.56;;;6.73;100.00
56182;BME280;51963;46.052;14.544;2023-03-04T11:07:11;98310.50;;;6.89;100.00
56182;BME280;51963;46.052;14.544;2023-03-04T11:09:39;98331.81;;;7.11;100.00
56182;BME280;51963;46.052;14.544;2023-03-04T11:12:14;98315.81;;;7.94;100.00
56182;BME280;51963;46.052;14.544;2023-03-04T11:14:51;98318.19;;;7.72;100.00
56182;BME280;51963;46.052;14.544;2023-03-04T11:17:23;98312.22;;;8.18;100.00
56182;BME280;51963;46.052;14.544;2023-03-04T11:19:54;98294.09;;;9.23;92.28
56182;BME280;51963;46.052;14.544;2023-03-04T11:22:22;98311.88;;;10.11;89.02
56182;BME280;51963;46.052;14.544;2023-03-04T11:24:58;98314.28;;;10.86;85.14
56182;BME280;51963;46.052;14.544;2023-03-04T11:27:29;98314.78;;;11.61;83.38
56182;BME280;51963;46.052;14.544;2023-03-04T11:30:32;98306.56;;;13.20;72.67
56182;BME280;51963;46.052;14.544;2023-03-04T11:38:46;98293.78;;;16.53;56.51
56182;BME280;51963;46.052;14.544;2023-03-04T11:41:16;98287.97;;;18.28;49.30
56182;BME280;51963;46.052;14.544;2023-03-04T11:43:45;98277.41;;;19.02;45.30
56182;BME280;51963;46.052;14.544;2023-03-04T11:54:25;98244.13;;;18.98;44.63
56182;BME280;51963;46.052;14.544;2023-03-04T11:57:02;98252.53;;;18.38;45.67
56182;BME280;51963;46.052;14.544;2023-03-04T12:02:21;98244.16;;;19.59;43.74
56182;BME280;51963;46.052;14.544;2023-03-04T12:05:23;98232.81;;;19.52;43.50
56182;BME280;51963;46.052;14.544;2023-03-04T12:08:16;98234.34;;;19.70;42.45
56182;BME280;51963;46.052;14.544;2023-03-04T12:16:23;98201.13;;;19.27;42.25
56182;BME280;51963;46.052;14.544;2023-03-04T12:21:45;98203.88;;;18.75;46.83
56182;BME280;51963;46.052;14.544;2023-03-04T12:29:57;98188.22;;;17.87;46.48
56182;BME280;51963;46.052;14.544;2023-03-04T12:32:53;98180.28;;;17.34;48.34
56182;BME280;51963;46.052;14.544;2023-03-04T12:38:34;98145.38;;;17.00;49.53
56182;BME280;51963;46.052;14.544;2023-03-04T12:41:19;98141.50;;;18.41;45.43
56182;BME280;51963;46.052;14.544;2023-03-04T12:44:15;98152.13;;;18.01;47.28
56182;BME280;51963;46.052;14.544;2023-03-04T12:47:08;98145.81;;;17.79;46.58
56182;BME280;51963;46.052;14.544;2023-03-04T12:49:53;98134.75;;;18.95;43.47
56182;BME280;51963;46.052;14.544;2023-03-04T12:55:09;98120.38;;;19.45;43.06
56182;BME280;51963;46.052;14.544;2023-03-04T12:57:36;98118.63;;;20.11;41.55
56182;BME280;51963;46.052;14.544;2023-03-04T13:03:02;98121.25;;;19.78;41.63
56182;BME280;51963;46.052;14.544;2023-03-04T13:08:52;98112.63;;;18.99;40.90
56182;BME280;51963;46.052;14.544;2023-03-04T13:14:06;98097.66;;;21.89;35.46
56182;BME280;51963;46.052;14.544;2023-03-04T13:16:51;98091.19;;;22.05;35.49
56182;BME280;51963;46.052;14.544;2023-03-04T13:32:56;98085.81;;;18.21;40.81
56182;BME280;51963;46.052;14.544;2023-03-04T13:35:56;98078.16;;;17.03;44.80
56182;BME280;51963;46.052;14.544;2023-03-04T13:56:29;98043.53;;;20.21;37.36
56182;BME280;51963;46.052;14.544;2023-03-04T14:06:41;98015.84;;;21.95;34.03
56182;BME280;51963;46.052;14.544;2023-03-04T14:09:16;98026.22;;;22.53;33.37
56182;BME280;51963;46.052;14.544;2023-03-04T14:11:46;98028.47;;;22.00;34.33
56182;BME280;51963;46.052;14.544;2023-03-04T14:14:15;98025.47;;;21.29;35.26
56182;BME280;51963;46.052;14.544;2023-03-04T14:16:48;98012.91;;;19.19;38.24
56182;BME280;51963;46.052;14.544;2023-03-04T14:19:21;98021.59;;;20.88;36.25
56182;BME280;51963;46.052;14.544;2023-03-04T14:21:48;98014.53;;;20.18;37.83
56182;BME280;51963;46.052;14.544;2023-03-04T14:24:17;98016.38;;;18.70;39.55
56182;BME280;51963;46.052;14.544;2023-03-04T14:26:44;98015.06;;;19.83;37.45
56182;BME280;51963;46.052;14.544;2023-03-04T14:31:45;98011.94;;;20.92;36.01
56182;BME280;51963;46.052;14.544;2023-03-04T14:34:18;97995.91;;;20.01;37.12
56182;BME280;51963;46.052;14.544;2023-03-04T14:36:45;97979.13;;;18.91;39.87
56182;BME280;51963;46.052;14.544;2023-03-04T14:39:15;97997.16;;;20.31;36.82
56182;BME280;51963;46.052;14.544;2023-03-04T14:41:43;97962.56;;;19.54;37.56